Orbital elements of ARIANE 1 DEB
| Launched | 23 December 1979 |
| Flight ended | – |
| Launch site | Europe's Spaceport, Kourou, French Guiana |
| Owner | France |
| NORAD ID | 25765 |
| Date fetched |
Epoch osculation |
Inc. [°] |
Ecc. | RA asc node [hr] |
Arg Peri. [°] |
Mean anom [°] |
Mean motion [rev/day] |
Abs. mag |
| Date fetched |
Epoch osculation |
Inc. [°] |
Ecc. | RA asc node [hr] |
Arg Peri. [°] |
Mean anom [°] |
Mean motion [rev/day] |
Abs. mag |
| 2026 May 04 17:57 | 2026 Apr 30 10:47:32 | 19.8369 | 0.55211 | 11.9052 | 119.1631 | 306.6221 | 4.57194 | – |
| 2026 May 03 17:57 | 2026 Apr 30 10:47:32 | 19.8369 | 0.55211 | 11.9052 | 119.1631 | 306.6221 | 4.57194 | – |
| 2026 May 02 17:57 | 2026 Apr 30 10:47:32 | 19.8369 | 0.55211 | 11.9052 | 119.1631 | 306.6221 | 4.57194 | – |
| 2026 May 01 17:56 | 2026 Apr 30 10:47:32 | 19.8369 | 0.55211 | 11.9052 | 119.1631 | 306.6221 | 4.57194 | – |
| 2026 Apr 30 17:56 | 2026 Apr 30 10:47:32 | 19.8369 | 0.55211 | 11.9052 | 119.1631 | 306.6221 | 4.57194 | – |
| 2026 Apr 29 17:57 | 2026 Apr 24 07:56:59 | 19.8333 | 0.55228 | 12.2748 | 109.1232 | 306.6221 | 4.57194 | – |
| 2026 Apr 28 17:56 | 2026 Apr 24 07:56:59 | 19.8333 | 0.55228 | 12.2748 | 109.1232 | 306.6221 | 4.57194 | – |
| 2026 Apr 27 17:58 | 2026 Apr 24 07:56:59 | 19.8333 | 0.55228 | 12.2748 | 109.1232 | 306.6221 | 4.57194 | – |
| 2026 Apr 26 17:58 | 2026 Apr 24 07:56:59 | 19.8333 | 0.55228 | 12.2748 | 109.1232 | 306.6221 | 4.57194 | – |
| 2026 Apr 25 17:58 | 2026 Apr 24 07:56:59 | 19.8333 | 0.55228 | 12.2748 | 109.1232 | 306.6221 | 4.57194 | – |
| 2026 Apr 24 17:59 | 2026 Apr 24 07:56:59 | 19.8333 | 0.55228 | 12.2748 | 109.1232 | 306.6221 | 4.57194 | – |
| 2026 Apr 23 17:57 | 2026 Apr 17 13:20:24 | 19.8213 | 0.55252 | 12.6824 | 98.0473 | 306.6221 | 4.57194 | – |
| 2026 Apr 22 17:57 | 2026 Apr 17 13:20:24 | 19.8213 | 0.55252 | 12.6824 | 98.0473 | 306.6221 | 4.57194 | – |
| 2026 Apr 21 17:57 | 2026 Apr 17 13:20:24 | 19.8213 | 0.55252 | 12.6824 | 98.0473 | 306.6221 | 4.57194 | – |
| 2026 Apr 20 17:57 | 2026 Apr 17 13:20:24 | 19.8213 | 0.55252 | 12.6824 | 98.0473 | 306.6221 | 4.57194 | – |
| 2026 Apr 19 17:58 | 2026 Apr 17 13:20:24 | 19.8213 | 0.55252 | 12.6824 | 98.0473 | 306.6221 | 4.57194 | – |
| 2026 Apr 18 17:56 | 2026 Apr 12 07:25:50 | 19.8218 | 0.55255 | 13.0002 | 89.4156 | 306.6221 | 4.57194 | – |
| 2026 Apr 16 17:57 | 2026 Apr 12 07:25:50 | 19.8218 | 0.55255 | 13.0002 | 89.4156 | 306.6221 | 4.57194 | – |
| 2026 Apr 14 17:57 | 2026 Apr 12 07:25:50 | 19.8218 | 0.55255 | 13.0002 | 89.4156 | 306.6221 | 4.57194 | – |
| 2026 Apr 13 17:57 | 2026 Apr 12 07:25:50 | 19.8218 | 0.55255 | 13.0002 | 89.4156 | 306.6221 | 4.57194 | – |
| 2026 Apr 12 17:57 | 2026 Apr 08 14:14:15 | 19.8250 | 0.55257 | 13.2253 | 83.3024 | 306.6221 | 4.57194 | – |
| 2026 Apr 11 17:57 | 2026 Apr 08 14:14:15 | 19.8250 | 0.55257 | 13.2253 | 83.3024 | 306.6221 | 4.57194 | – |
| 2026 Apr 10 17:58 | 2026 Apr 08 14:14:15 | 19.8250 | 0.55257 | 13.2253 | 83.3024 | 306.6221 | 4.57194 | – |
| 2026 Apr 09 18:01 | 2026 Apr 08 14:14:15 | 19.8250 | 0.55257 | 13.2253 | 83.3024 | 306.6221 | 4.57194 | – |
| 2026 Apr 08 17:57 | 2026 Apr 08 14:14:15 | 19.8250 | 0.55257 | 13.2253 | 83.3024 | 306.6221 | 4.57194 | – |
| 2026 Apr 07 17:57 | 2026 Apr 01 14:19:43 | 19.8261 | 0.55269 | 13.6486 | 71.8327 | 306.6221 | 4.57194 | – |